PWSweather.com
Personal Weather Stations
Station Observations
IFREISTO2
Freiston, FreistonGB PE22 0QJ

FreistonFreistonGB PE22 0QJ

Lat: 52.964, Lon: 0.041

Elevation: 16

Station Type: Fine Offset

http://www.midlifedad.me.uk/weather

High Low Average
Temperature 87.6°F30.9°C 54.5°F12.5°C 63.4°F17.4°C
Dew Point 66.6°F19.2°C 52.5°F11.4°C 58.2°F14.6°C
Winds 12.7 mph 20.4 kmh 0.5 mph 0.8 kmh 4.0 mph SE6.4 kmh SE
Wind Gusts 20.6 mph33.2 kmh 2.2 mph3.5 kmh 7.0 mph11.3 kmh
Humidity 98% 46% 85%
Pressure 29.73 in1006.8 mb 29.56 in1001.0 mb -
Precipitation 0.08 in2.0 mm - -
Hour Temp Dew Point Humidity Winds Wind Gusts Pressure Precip Precip Rate Daily Precip Total
12:00 AM 55.4°F13.0°C 52.8°F11.6°C 91% 3.4 mph E5.5 kmh E 5.4 mph8.7 kmh 29.73 in1006.8 mb 0.00 in0.0 mm 0.00 in0.0 mm 0.00 in0.0 mm
12:05 AM 55.4°F13.0°C 52.8°F11.6°C 91% 3.0 mph ESE4.8 kmh ESE 5.4 mph8.7 kmh 29.73 in1006.8 mb 0.00 in0.0 mm 0.00 in0.0 mm 0.00 in0.0 mm
12:10 AM 55.4°F13.0°C 52.8°F11.6°C 91% 2.9 mph E4.7 kmh E 4.5 mph7.2 kmh 29.73 in1006.8 mb 0.00 in0.0 mm 0.00 in0.0 mm 0.00 in0.0 mm
12:13 AM 55.4°F13.0°C 52.8°F11.6°C 91% 2.2 mph E3.5 kmh E 3.8 mph6.1 kmh 29.73 in1006.8 mb 0.00 in0.0 mm 0.00 in0.0 mm 0.00 in0.0 mm
12:15 AM 55.4°F13.0°C 52.8°F11.6°C 91% 2.8 mph E4.5 kmh E 4.5 mph7.2 kmh 29.73 in1006.8 mb 0.00 in0.0 mm 0.00 in0.0 mm 0.00 in0.0 mm
12:20 AM 55.2°F12.9°C 52.9°F11.6°C 92% 2.3 mph E3.7 kmh E 4.5 mph7.2 kmh 29.73 in1006.8 mb 0.00 in0.0 mm 0.00 in0.0 mm 0.00 in0.0 mm
12:25 AM 55.2°F12.9°C 52.9°F11.6°C 92% 2.0 mph E3.2 kmh E 3.8 mph6.1 kmh 29.72 in1006.4 mb 0.00 in0.0 mm 0.00 in0.0 mm 0.00 in0.0 mm
12:30 AM 55.2°F12.9°C 52.9°F11.6°C 92% 1.9 mph ESE3.1 kmh ESE 3.8 mph6.1 kmh 29.72 in1006.4 mb 0.00 in0.0 mm 0.00 in0.0 mm 0.00 in0.0 mm
12:35 AM 55.0°F12.8°C 52.8°F11.6°C 92% 1.7 mph ESE2.7 kmh ESE 3.8 mph6.1 kmh 29.72 in1006.4 mb 0.00 in0.0 mm 0.00 in0.0 mm 0.00 in0.0 mm
12:40 AM 55.0°F12.8°C 52.8°F11.6°C 92% 1.2 mph E1.9 kmh E 3.8 mph6.1 kmh 29.72 in1006.4 mb 0.00 in0.0 mm 0.00 in0.0 mm 0.00 in0.0 mm
12:43 AM 55.0°F12.8°C 52.8°F11.6°C 92% 0.7 mph S1.1 kmh S 2.2 mph3.5 kmh 29.72 in1006.4 mb 0.00 in0.0 mm 0.00 in0.0 mm 0.00 in0.0 mm
12:45 AM 55.0°F12.8°C 52.8°F11.6°C 92% 0.7 mph SE1.1 kmh SE 2.2 mph3.5 kmh 29.72 in1006.4 mb 0.00 in0.0 mm 0.00 in0.0 mm 0.00 in0.0 mm
12:50 AM 55.2°F12.9°C 52.9°F11.6°C 92% 0.7 mph ESE1.1 kmh ESE 3.1 mph5.0 kmh 29.72 in1006.4 mb 0.00 in0.0 mm 0.00 in0.0 mm 0.00 in0.0 mm
12:55 AM 55.2°F12.9°C 52.9°F11.6°C 92% 1.1 mph E1.8 kmh E 3.1 mph5.0 kmh 29.71 in1006.1 mb 0.00 in0.0 mm 0.00 in0.0 mm 0.00 in0.0 mm
01:00 AM 55.2°F12.9°C 53.2°F11.8°C 93% 1.5 mph E2.4 kmh E 3.1 mph5.0 kmh 29.71 in1006.1 mb 0.00 in0.0 mm 0.00 in0.0 mm 0.00 in0.0 mm
01:05 AM 55.0°F12.8°C 53.1°F11.7°C 93% 1.8 mph ESE2.9 kmh ESE 3.1 mph5.0 kmh 29.71 in1006.1 mb 0.00 in0.0 mm 0.00 in0.0 mm 0.00 in0.0 mm
01:10 AM 54.9°F12.7°C 52.9°F11.6°C 93% 1.8 mph ESE2.9 kmh ESE 3.8 mph6.1 kmh 29.71 in1006.1 mb 0.00 in0.0 mm 0.00 in0.0 mm 0.00 in0.0 mm
01:13 AM 54.9°F12.7°C 52.9°F11.6°C 93% 1.6 mph E2.6 kmh E 3.1 mph5.0 kmh 29.71 in1006.1 mb 0.00 in0.0 mm 0.00 in0.0 mm 0.00 in0.0 mm
01:15 AM 54.7°F12.6°C 52.7°F11.5°C 93% 1.8 mph E2.9 kmh E 3.8 mph6.1 kmh 29.71 in1006.1 mb 0.00 in0.0 mm 0.00 in0.0 mm 0.00 in0.0 mm
01:20 AM 54.7°F12.6°C 52.7°F11.5°C 93% 1.5 mph ESE2.4 kmh ESE 3.1 mph5.0 kmh 29.70 in1005.8 mb 0.00 in0.0 mm 0.00 in0.0 mm 0.00 in0.0 mm
01:25 AM 54.7°F12.6°C 52.7°F11.5°C 93% 1.2 mph ESE1.9 kmh ESE 3.1 mph5.0 kmh 29.70 in1005.8 mb 0.00 in0.0 mm 0.00 in0.0 mm 0.00 in0.0 mm
01:30 AM 54.9°F12.7°C 52.9°F11.6°C 93% 1.0 mph ESE1.6 kmh ESE 3.1 mph5.0 kmh 29.70 in1005.8 mb 0.00 in0.0 mm 0.00 in0.0 mm 0.00 in0.0 mm
01:35 AM 54.9°F12.7°C 52.9°F11.6°C 93% 0.9 mph E1.4 kmh E 2.2 mph3.5 kmh 29.70 in1005.8 mb 0.00 in0.0 mm 0.00 in0.0 mm 0.00 in0.0 mm
01:40 AM 54.9°F12.7°C 52.9°F11.6°C 93% 0.7 mph ENE1.1 kmh ENE 2.2 mph3.5 kmh 29.70 in1005.8 mb 0.00 in0.0 mm 0.00 in0.0 mm 0.00 in0.0 mm
01:43 AM 54.7°F12.6°C 52.7°F11.5°C 93% 0.7 mph NE1.1 kmh NE 1.6 mph2.6 kmh 29.69 in1005.4 mb 0.00 in0.0 mm 0.00 in0.0 mm 0.00 in0.0 mm
01:45 AM 54.7°F12.6°C 52.7°F11.5°C 93% 0.5 mph NE0.8 kmh NE 2.2 mph3.5 kmh 29.70 in1005.8 mb 0.00 in0.0 mm 0.00 in0.0 mm 0.00 in0.0 mm
01:50 AM 54.9°F12.7°C 52.9°F11.6°C 93% 0.7 mph NE1.1 kmh NE 2.2 mph3.5 kmh 29.69 in1005.4 mb 0.00 in0.0 mm 0.00 in0.0 mm 0.00 in0.0 mm
01:55 AM 54.9°F12.7°C 52.9°F11.6°C 93% 0.7 mph NE1.1 kmh NE 2.2 mph3.5 kmh 29.69 in1005.4 mb 0.00 in0.0 mm 0.00 in0.0 mm 0.00 in0.0 mm
02:00 AM 54.7°F12.6°C 52.7°F11.5°C 93% 1.1 mph ENE1.8 kmh ENE 2.2 mph3.5 kmh 29.69 in1005.4 mb 0.00 in0.0 mm 0.00 in0.0 mm 0.00 in0.0 mm
02:05 AM 54.5°F12.5°C 52.5°F11.4°C 93% 1.6 mph ENE2.6 kmh ENE 3.1 mph5.0 kmh 29.69 in1005.4 mb 0.00 in0.0 mm 0.00 in0.0 mm 0.00 in0.0 mm
02:10 AM 54.5°F12.5°C 52.5°F11.4°C 93% 1.8 mph E2.9 kmh E 3.1 mph5.0 kmh 29.69 in1005.4 mb 0.00 in0.0 mm 0.00 in0.0 mm 0.00 in0.0 mm
02:13 AM 54.5°F12.5°C 52.5°F11.4°C 93% 1.6 mph E2.6 kmh E 2.2 mph3.5 kmh 29.69 in1005.4 mb 0.00 in0.0 mm 0.00 in0.0 mm 0.00 in0.0 mm
02:15 AM 54.5°F12.5°C 52.8°F11.6°C 94% 1.8 mph E2.9 kmh E 3.1 mph5.0 kmh 29.69 in1005.4 mb 0.00 in0.0 mm 0.00 in0.0 mm 0.00 in0.0 mm
02:20 AM 54.5°F12.5°C 52.8°F11.6°C 94% 1.9 mph E3.1 kmh E 3.8 mph6.1 kmh 29.69 in1005.4 mb 0.00 in0.0 mm 0.00 in0.0 mm 0.00 in0.0 mm
02:25 AM 54.5°F12.5°C 52.8°F11.6°C 94% 2.2 mph E3.5 kmh E 3.8 mph6.1 kmh 29.68 in1005.1 mb 0.00 in0.0 mm 0.00 in0.0 mm 0.00 in0.0 mm
02:30 AM 54.5°F12.5°C 52.8°F11.6°C 94% 2.8 mph E4.5 kmh E 4.5 mph7.2 kmh 29.68 in1005.1 mb 0.00 in0.0 mm 0.00 in0.0 mm 0.00 in0.0 mm
02:35 AM 54.7°F12.6°C 53.0°F11.7°C 94% 3.1 mph E5.0 kmh E 5.4 mph8.7 kmh 29.68 in1005.1 mb 0.00 in0.0 mm 0.00 in0.0 mm 0.00 in0.0 mm
02:40 AM 55.0°F12.8°C 53.3°F11.8°C 94% 3.3 mph E5.3 kmh E 5.4 mph8.7 kmh 29.68 in1005.1 mb 0.00 in0.0 mm 0.00 in0.0 mm 0.00 in0.0 mm
02:43 AM 55.2°F12.9°C 53.5°F11.9°C 94% 4.5 mph SE7.2 kmh SE 6.0 mph9.7 kmh 29.68 in1005.1 mb 0.00 in0.0 mm 0.00 in0.0 mm 0.00 in0.0 mm
02:45 AM 55.2°F12.9°C 53.5°F11.9°C 94% 3.8 mph E6.1 kmh E 6.0 mph9.7 kmh 29.68 in1005.1 mb 0.00 in0.0 mm 0.00 in0.0 mm 0.00 in0.0 mm
02:50 AM 55.6°F13.1°C 54.2°F12.3°C 95% 3.9 mph E6.3 kmh E 6.9 mph11.1 kmh 29.68 in1005.1 mb 0.00 in0.0 mm 0.00 in0.0 mm 0.00 in0.0 mm
02:55 AM 55.8°F13.2°C 54.3°F12.4°C 95% 3.9 mph E6.3 kmh E 6.9 mph11.1 kmh 29.67 in1004.7 mb 0.00 in0.0 mm 0.00 in0.0 mm 0.00 in0.0 mm
03:00 AM 55.9°F13.3°C 54.5°F12.5°C 95% 4.2 mph E6.8 kmh E 6.9 mph11.1 kmh 29.67 in1004.7 mb 0.00 in0.0 mm 0.00 in0.0 mm 0.00 in0.0 mm
03:05 AM 55.9°F13.3°C 54.5°F12.5°C 95% 4.7 mph E7.6 kmh E 6.9 mph11.1 kmh 29.67 in1004.7 mb 0.00 in0.0 mm 0.00 in0.0 mm 0.00 in0.0 mm
03:10 AM 56.3°F13.5°C 54.9°F12.7°C 95% 5.0 mph E8.0 kmh E 6.9 mph11.1 kmh 29.67 in1004.7 mb 0.00 in0.0 mm 0.00 in0.0 mm 0.00 in0.0 mm
03:13 AM 56.3°F13.5°C 54.9°F12.7°C 95% 5.4 mph E8.7 kmh E 7.6 mph12.2 kmh 29.67 in1004.7 mb 0.00 in0.0 mm 0.00 in0.0 mm 0.00 in0.0 mm
03:15 AM 56.3°F13.5°C 54.9°F12.7°C 95% 5.1 mph E8.2 kmh E 8.3 mph13.4 kmh 29.66 in1004.4 mb 0.00 in0.0 mm 0.00 in0.0 mm 0.00 in0.0 mm
03:20 AM 56.5°F13.6°C 55.1°F12.8°C 95% 5.7 mph E9.2 kmh E 8.3 mph13.4 kmh 29.67 in1004.7 mb 0.00 in0.0 mm 0.00 in0.0 mm 0.00 in0.0 mm
03:25 AM 56.5°F13.6°C 55.1°F12.8°C 95% 6.0 mph E9.7 kmh E 9.2 mph14.8 kmh 29.66 in1004.4 mb 0.00 in0.0 mm 0.00 in0.0 mm 0.00 in0.0 mm
03:30 AM 56.7°F13.7°C 55.2°F12.9°C 95% 5.8 mph E9.3 kmh E 9.2 mph14.8 kmh 29.66 in1004.4 mb 0.00 in0.0 mm 0.00 in0.0 mm 0.00 in0.0 mm
03:35 AM 56.7°F13.7°C 55.5°F13.1°C 96% 5.8 mph E9.3 kmh E 9.2 mph14.8 kmh 29.66 in1004.4 mb 0.00 in0.0 mm 0.00 in0.0 mm 0.00 in0.0 mm
03:40 AM 56.8°F13.8°C 55.7°F13.2°C 96% 5.8 mph E9.3 kmh E 9.2 mph14.8 kmh 29.65 in1004.1 mb 0.00 in0.0 mm 0.00 in0.0 mm 0.00 in0.0 mm
03:43 AM 56.8°F13.8°C 55.7°F13.2°C 96% 7.6 mph E12.2 kmh E 9.8 mph15.8 kmh 29.65 in1004.1 mb 0.00 in0.0 mm 0.00 in0.0 mm 0.00 in0.0 mm
03:45 AM 56.8°F13.8°C 55.7°F13.2°C 96% 5.7 mph E9.2 kmh E 9.8 mph15.8 kmh 29.65 in1004.1 mb 0.00 in0.0 mm 0.00 in0.0 mm 0.00 in0.0 mm
03:50 AM 56.8°F13.8°C 55.7°F13.2°C 96% 5.3 mph E8.5 kmh E 9.8 mph15.8 kmh 29.65 in1004.1 mb 0.00 in0.0 mm 0.00 in0.0 mm 0.00 in0.0 mm
03:55 AM 56.8°F13.8°C 55.7°F13.2°C 96% 4.5 mph E7.2 kmh E 7.6 mph12.2 kmh 29.65 in1004.1 mb 0.00 in0.0 mm 0.00 in0.0 mm 0.00 in0.0 mm
04:00 AM 56.8°F13.8°C 55.7°F13.2°C 96% 4.4 mph E7.1 kmh E 6.9 mph11.1 kmh 29.65 in1004.1 mb 0.00 in0.0 mm 0.00 in0.0 mm 0.00 in0.0 mm
04:05 AM 56.8°F13.8°C 55.7°F13.2°C 96% 4.3 mph E6.9 kmh E 7.6 mph12.2 kmh 29.65 in1004.1 mb 0.00 in0.0 mm 0.00 in0.0 mm 0.00 in0.0 mm
04:10 AM 56.8°F13.8°C 55.7°F13.2°C 96% 4.2 mph E6.8 kmh E 7.6 mph12.2 kmh 29.65 in1004.1 mb 0.00 in0.0 mm 0.00 in0.0 mm 0.00 in0.0 mm
04:13 AM 56.8°F13.8°C 55.7°F13.2°C 96% 4.5 mph E7.2 kmh E 6.9 mph11.1 kmh 29.65 in1004.1 mb 0.00 in0.0 mm 0.00 in0.0 mm 0.00 in0.0 mm
04:15 AM 56.8°F13.8°C 55.7°F13.2°C 96% 4.3 mph ESE6.9 kmh ESE 7.6 mph12.2 kmh 29.65 in1004.1 mb 0.00 in0.0 mm 0.00 in0.0 mm 0.00 in0.0 mm
04:20 AM 56.8°F13.8°C 55.7°F13.2°C 96% 4.2 mph E6.8 kmh E 7.6 mph12.2 kmh 29.64 in1003.7 mb 0.00 in0.0 mm 0.00 in0.0 mm 0.00 in0.0 mm
04:25 AM 56.8°F13.8°C 55.7°F13.2°C 96% 4.4 mph E7.1 kmh E 8.3 mph13.4 kmh 29.64 in1003.7 mb 0.00 in0.0 mm 0.00 in0.0 mm 0.00 in0.0 mm
04:30 AM 56.7°F13.7°C 55.5°F13.1°C 96% 4.5 mph E7.2 kmh E 8.3 mph13.4 kmh 29.64 in1003.7 mb 0.00 in0.0 mm 0.00 in0.0 mm 0.00 in0.0 mm
04:35 AM 56.8°F13.8°C 55.7°F13.2°C 96% 4.7 mph E7.6 kmh E 7.6 mph12.2 kmh 29.64 in1003.7 mb 0.00 in0.0 mm 0.00 in0.0 mm 0.00 in0.0 mm
04:40 AM 56.8°F13.8°C 55.7°F13.2°C 96% 5.6 mph E9.0 kmh E 9.2 mph14.8 kmh 29.64 in1003.7 mb 0.00 in0.0 mm 0.00 in0.0 mm 0.00 in0.0 mm
04:43 AM 56.8°F13.8°C 55.7°F13.2°C 96% 5.4 mph E8.7 kmh E 7.6 mph12.2 kmh 29.64 in1003.7 mb 0.00 in0.0 mm 0.00 in0.0 mm 0.00 in0.0 mm
04:45 AM 57.0°F13.9°C 55.9°F13.3°C 96% 5.9 mph E9.5 kmh E 9.2 mph14.8 kmh 29.64 in1003.7 mb 0.00 in0.0 mm 0.00 in0.0 mm 0.00 in0.0 mm
04:50 AM 57.2°F14.0°C 55.8°F13.2°C 95% 5.8 mph E9.3 kmh E 9.2 mph14.8 kmh 29.64 in1003.7 mb 0.00 in0.0 mm 0.00 in0.0 mm 0.00 in0.0 mm
04:55 AM 57.2°F14.0°C 55.8°F13.2°C 95% 5.7 mph E9.2 kmh E 9.2 mph14.8 kmh 29.63 in1003.4 mb 0.00 in0.0 mm 0.00 in0.0 mm 0.00 in0.0 mm
05:00 AM 57.2°F14.0°C 55.8°F13.2°C 95% 5.5 mph E8.9 kmh E 9.8 mph15.8 kmh 29.63 in1003.4 mb 0.00 in0.0 mm 0.00 in0.0 mm 0.00 in0.0 mm
05:05 AM 57.2°F14.0°C 55.8°F13.2°C 95% 5.5 mph E8.9 kmh E 9.8 mph15.8 kmh 29.64 in1003.7 mb 0.00 in0.0 mm 0.00 in0.0 mm 0.00 in0.0 mm
05:10 AM 57.4°F14.1°C 56.0°F13.3°C 95% 5.2 mph E8.4 kmh E 8.3 mph13.4 kmh 29.63 in1003.4 mb 0.00 in0.0 mm 0.00 in0.0 mm 0.00 in0.0 mm
05:13 AM 57.4°F14.1°C 56.0°F13.3°C 95% 5.4 mph E8.7 kmh E 7.6 mph12.2 kmh 29.63 in1003.4 mb 0.00 in0.0 mm 0.00 in0.0 mm 0.00 in0.0 mm
05:15 AM 57.4°F14.1°C 56.0°F13.3°C 95% 5.2 mph E8.4 kmh E 8.3 mph13.4 kmh 29.63 in1003.4 mb 0.00 in0.0 mm 0.00 in0.0 mm 0.00 in0.0 mm
05:20 AM 57.6°F14.2°C 56.1°F13.4°C 95% 5.3 mph E8.5 kmh E 8.3 mph13.4 kmh 29.63 in1003.4 mb 0.00 in0.0 mm 0.00 in0.0 mm 0.00 in0.0 mm
05:25 AM 57.6°F14.2°C 56.1°F13.4°C 95% 5.0 mph ESE8.0 kmh ESE 8.3 mph13.4 kmh 29.63 in1003.4 mb 0.00 in0.0 mm 0.00 in0.0 mm 0.00 in0.0 mm
05:30 AM 57.6°F14.2°C 56.1°F13.4°C 95% 4.8 mph ESE7.7 kmh ESE 8.3 mph13.4 kmh 29.63 in1003.4 mb 0.00 in0.0 mm 0.00 in0.0 mm 0.00 in0.0 mm
05:35 AM 57.6°F14.2°C 56.1°F13.4°C 95% 5.0 mph E8.0 kmh E 9.2 mph14.8 kmh 29.63 in1003.4 mb 0.00 in0.0 mm 0.00 in0.0 mm 0.00 in0.0 mm
05:40 AM 57.6°F14.2°C 56.1°F13.4°C 95% 4.9 mph E7.9 kmh E 9.2 mph14.8 kmh 29.63 in1003.4 mb 0.00 in0.0 mm 0.00 in0.0 mm 0.00 in0.0 mm
05:43 AM 57.6°F14.2°C 56.1°F13.4°C 95% 5.4 mph E8.7 kmh E 7.6 mph12.2 kmh 29.62 in1003.0 mb 0.00 in0.0 mm 0.00 in0.0 mm 0.00 in0.0 mm
05:45 AM 57.6°F14.2°C 56.1°F13.4°C 95% 4.8 mph E7.7 kmh E 7.6 mph12.2 kmh 29.63 in1003.4 mb 0.00 in0.0 mm 0.00 in0.0 mm 0.00 in0.0 mm
05:50 AM 57.6°F14.2°C 56.1°F13.4°C 95% 5.0 mph E8.0 kmh E 8.3 mph13.4 kmh 29.63 in1003.4 mb 0.00 in0.0 mm 0.00 in0.0 mm 0.00 in0.0 mm
05:55 AM 57.6°F14.2°C 56.1°F13.4°C 95% 4.8 mph E7.7 kmh E 8.3 mph13.4 kmh 29.62 in1003.0 mb 0.00 in0.0 mm 0.00 in0.0 mm 0.00 in0.0 mm
06:00 AM 57.6°F14.2°C 56.1°F13.4°C 95% 5.1 mph E8.2 kmh E 8.3 mph13.4 kmh 29.62 in1003.0 mb 0.00 in0.0 mm 0.00 in0.0 mm 0.00 in0.0 mm
06:05 AM 57.7°F14.3°C 56.3°F13.5°C 95% 6.1 mph E9.8 kmh E 9.8 mph15.8 kmh 29.63 in1003.4 mb 0.00 in0.0 mm 0.00 in0.0 mm 0.00 in0.0 mm
06:10 AM 57.9°F14.4°C 56.5°F13.6°C 95% 6.0 mph E9.7 kmh E 9.8 mph15.8 kmh 29.62 in1003.0 mb 0.00 in0.0 mm 0.00 in0.0 mm 0.00 in0.0 mm
06:13 AM 57.9°F14.4°C 56.5°F13.6°C 95% 5.4 mph ESE8.7 kmh ESE 7.6 mph12.2 kmh 29.62 in1003.0 mb 0.00 in0.0 mm 0.00 in0.0 mm 0.00 in0.0 mm
06:15 AM 58.1°F14.5°C 56.7°F13.7°C 95% 5.4 mph ESE8.7 kmh ESE 9.2 mph14.8 kmh 29.63 in1003.4 mb 0.00 in0.0 mm 0.00 in0.0 mm 0.00 in0.0 mm
06:20 AM 58.1°F14.5°C 56.7°F13.7°C 95% 5.9 mph ESE9.5 kmh ESE 9.2 mph14.8 kmh 29.62 in1003.0 mb 0.00 in0.0 mm 0.00 in0.0 mm 0.00 in0.0 mm
06:25 AM 58.5°F14.7°C 57.0°F13.9°C 95% 6.3 mph ESE10.1 kmh ESE 9.8 mph15.8 kmh 29.62 in1003.0 mb 0.00 in0.0 mm 0.00 in0.0 mm 0.00 in0.0 mm
06:30 AM 58.8°F14.9°C 57.4°F14.1°C 95% 5.9 mph ESE9.5 kmh ESE 9.8 mph15.8 kmh 29.62 in1003.0 mb 0.00 in0.0 mm 0.00 in0.0 mm 0.00 in0.0 mm
06:35 AM 59.0°F15.0°C 57.3°F14.1°C 94% 6.3 mph ESE10.1 kmh ESE 11.4 mph18.3 kmh 29.62 in1003.0 mb 0.00 in0.0 mm 0.00 in0.0 mm 0.00 in0.0 mm
06:40 AM 59.4°F15.2°C 57.6°F14.2°C 94% 6.1 mph E9.8 kmh E 11.4 mph18.3 kmh 29.62 in1003.0 mb 0.00 in0.0 mm 0.00 in0.0 mm 0.00 in0.0 mm
06:43 AM 59.5°F15.3°C 57.8°F14.3°C 94% 5.4 mph E8.7 kmh E 6.9 mph11.1 kmh 29.62 in1003.0 mb 0.00 in0.0 mm 0.00 in0.0 mm 0.00 in0.0 mm
06:45 AM 59.7°F15.4°C 58.0°F14.4°C 94% 5.2 mph E8.4 kmh E 9.2 mph14.8 kmh 29.62 in1003.0 mb 0.00 in0.0 mm 0.00 in0.0 mm 0.00 in0.0 mm
06:50 AM 59.9°F15.5°C 58.2°F14.6°C 94% 5.0 mph E8.0 kmh E 9.2 mph14.8 kmh 29.62 in1003.0 mb 0.00 in0.0 mm 0.00 in0.0 mm 0.00 in0.0 mm
06:55 AM 60.1°F15.6°C 58.3°F14.6°C 94% 4.8 mph E7.7 kmh E 9.2 mph14.8 kmh 29.62 in1003.0 mb 0.00 in0.0 mm 0.00 in0.0 mm 0.00 in0.0 mm
07:00 AM 60.4°F15.8°C 58.7°F14.8°C 94% 4.4 mph E7.1 kmh E 8.3 mph13.4 kmh 29.62 in1003.0 mb 0.00 in0.0 mm 0.00 in0.0 mm 0.00 in0.0 mm
07:05 AM 60.8°F16.0°C 58.8°F14.9°C 93% 3.9 mph ESE6.3 kmh ESE 8.3 mph13.4 kmh 29.62 in1003.0 mb 0.00 in0.0 mm 0.00 in0.0 mm 0.00 in0.0 mm
07:10 AM 61.3°F16.3°C 59.3°F15.2°C 93% 3.7 mph E6.0 kmh E 8.3 mph13.4 kmh 29.62 in1003.0 mb 0.00 in0.0 mm 0.00 in0.0 mm 0.00 in0.0 mm
07:13 AM 61.9°F16.6°C 59.8°F15.4°C 93% 4.5 mph SE7.2 kmh SE 6.0 mph9.7 kmh 29.62 in1003.0 mb 0.00 in0.0 mm 0.00 in0.0 mm 0.00 in0.0 mm
07:15 AM 62.1°F16.7°C 60.0°F15.6°C 93% 3.7 mph E6.0 kmh E 8.3 mph13.4 kmh 29.61 in1002.7 mb 0.00 in0.0 mm 0.00 in0.0 mm 0.00 in0.0 mm
07:20 AM 62.6°F17.0°C 60.2°F15.7°C 92% 3.5 mph ESE5.6 kmh ESE 8.3 mph13.4 kmh 29.62 in1003.0 mb 0.00 in0.0 mm 0.00 in0.0 mm 0.00 in0.0 mm
07:25 AM 63.3°F17.4°C 60.6°F15.9°C 91% 3.1 mph ESE5.0 kmh ESE 6.9 mph11.1 kmh 29.62 in1003.0 mb 0.00 in0.0 mm 0.00 in0.0 mm 0.00 in0.0 mm
07:30 AM 64.2°F17.9°C 61.5°F16.4°C 91% 3.3 mph ESE5.3 kmh ESE 7.6 mph12.2 kmh 29.62 in1003.0 mb 0.00 in0.0 mm 0.00 in0.0 mm 0.00 in0.0 mm
07:35 AM 64.8°F18.2°C 61.8°F16.6°C 90% 3.6 mph ESE5.8 kmh ESE 7.6 mph12.2 kmh 29.62 in1003.0 mb 0.00 in0.0 mm 0.00 in0.0 mm 0.00 in0.0 mm
07:40 AM 65.3°F18.5°C 62.0°F16.7°C 89% 3.5 mph E5.6 kmh E 7.6 mph12.2 kmh 29.62 in1003.0 mb 0.00 in0.0 mm 0.00 in0.0 mm 0.00 in0.0 mm
07:43 AM 65.8°F18.8°C 62.2°F16.8°C 88% 2.2 mph SW3.5 kmh SW 3.8 mph6.1 kmh 29.62 in1003.0 mb 0.00 in0.0 mm 0.00 in0.0 mm 0.00 in0.0 mm
07:45 AM 66.2°F19.0°C 62.2°F16.8°C 87% 3.4 mph ENE5.5 kmh ENE 7.6 mph12.2 kmh 29.62 in1003.0 mb 0.00 in0.0 mm 0.00 in0.0 mm 0.00 in0.0 mm
07:50 AM 66.6°F19.2°C 61.9°F16.6°C 85% 3.3 mph E5.3 kmh E 6.9 mph11.1 kmh 29.62 in1003.0 mb 0.00 in0.0 mm 0.00 in0.0 mm 0.00 in0.0 mm
07:55 AM 66.6°F19.2°C 61.2°F16.2°C 83% 3.1 mph SE5.0 kmh SE 6.9 mph11.1 kmh 29.62 in1003.0 mb 0.00 in0.0 mm 0.00 in0.0 mm 0.00 in0.0 mm
08:00 AM 66.2°F19.0°C 60.2°F15.7°C 81% 3.3 mph SE5.3 kmh SE 7.6 mph12.2 kmh 29.62 in1003.0 mb 0.00 in0.0 mm 0.00 in0.0 mm 0.00 in0.0 mm
08:05 AM 66.4°F19.1°C 60.0°F15.6°C 80% 3.6 mph ESE5.8 kmh ESE 7.6 mph12.2 kmh 29.62 in1003.0 mb 0.00 in0.0 mm 0.00 in0.0 mm 0.00 in0.0 mm
08:10 AM 66.6°F19.2°C 59.8°F15.4°C 79% 3.1 mph E5.0 kmh E 6.9 mph11.1 kmh 29.62 in1003.0 mb 0.00 in0.0 mm 0.00 in0.0 mm 0.00 in0.0 mm
08:13 AM 66.7°F19.3°C 60.0°F15.6°C 79% 2.2 mph SSE3.5 kmh SSE 4.5 mph7.2 kmh 29.62 in1003.0 mb 0.00 in0.0 mm 0.00 in0.0 mm 0.00 in0.0 mm
08:15 AM 66.9°F19.4°C 60.2°F15.7°C 79% 2.7 mph E4.3 kmh E 6.0 mph9.7 kmh 29.62 in1003.0 mb 0.00 in0.0 mm 0.00 in0.0 mm 0.00 in0.0 mm
08:20 AM 67.1°F19.5°C 60.0°F15.6°C 78% 3.0 mph SE4.8 kmh SE 6.0 mph9.7 kmh 29.62 in1003.0 mb 0.00 in0.0 mm 0.00 in0.0 mm 0.00 in0.0 mm
08:25 AM 67.1°F19.5°C 60.0°F15.6°C 78% 2.9 mph ESE4.7 kmh ESE 6.0 mph9.7 kmh 29.62 in1003.0 mb 0.00 in0.0 mm 0.00 in0.0 mm 0.00 in0.0 mm
08:30 AM 67.5°F19.7°C 60.0°F15.6°C 77% 2.8 mph E4.5 kmh E 6.9 mph11.1 kmh 29.62 in1003.0 mb 0.00 in0.0 mm 0.00 in0.0 mm 0.00 in0.0 mm
08:35 AM 68.0°F20.0°C 60.2°F15.7°C 76% 3.0 mph E4.8 kmh E 6.9 mph11.1 kmh 29.62 in1003.0 mb 0.00 in0.0 mm 0.00 in0.0 mm 0.00 in0.0 mm
08:40 AM 68.9°F20.5°C 61.0°F16.1°C 76% 2.9 mph E4.7 kmh E 6.0 mph9.7 kmh 29.62 in1003.0 mb 0.00 in0.0 mm 0.00 in0.0 mm 0.00 in0.0 mm
08:43 AM 70.2°F21.2°C 61.9°F16.6°C 75% 3.1 mph N5.0 kmh N 4.5 mph7.2 kmh 29.62 in1003.0 mb 0.00 in0.0 mm 0.00 in0.0 mm 0.00 in0.0 mm
08:45 AM 70.9°F21.6°C 62.6°F17.0°C 75% 3.0 mph E4.8 kmh E 6.9 mph11.1 kmh 29.62 in1003.0 mb 0.00 in0.0 mm 0.00 in0.0 mm 0.00 in0.0 mm
08:50 AM 73.4°F23.0°C 63.0°F17.2°C 70% 3.2 mph ENE5.1 kmh ENE 6.9 mph11.1 kmh 29.62 in1003.0 mb 0.00 in0.0 mm 0.00 in0.0 mm 0.00 in0.0 mm
08:55 AM 73.4°F23.0°C 61.8°F16.6°C 67% 3.2 mph ENE5.1 kmh ENE 6.9 mph11.1 kmh 29.62 in1003.0 mb 0.00 in0.0 mm 0.00 in0.0 mm 0.00 in0.0 mm
09:00 AM 72.7°F22.6°C 60.2°F15.7°C 65% 3.5 mph SE5.6 kmh SE 8.3 mph13.4 kmh 29.62 in1003.0 mb 0.00 in0.0 mm 0.00 in0.0 mm 0.00 in0.0 mm
09:05 AM 72.7°F22.6°C 60.2°F15.7°C 65% 3.7 mph SE6.0 kmh SE 8.3 mph13.4 kmh 29.62 in1003.0 mb 0.00 in0.0 mm 0.00 in0.0 mm 0.00 in0.0 mm
09:10 AM 73.2°F22.9°C 60.7°F15.9°C 65% 3.4 mph SE5.5 kmh SE 7.6 mph12.2 kmh 29.62 in1003.0 mb 0.00 in0.0 mm 0.00 in0.0 mm 0.00 in0.0 mm
09:13 AM 73.4°F23.0°C 60.9°F16.1°C 65% 3.1 mph S5.0 kmh S 4.5 mph7.2 kmh 29.61 in1002.7 mb 0.00 in0.0 mm 0.00 in0.0 mm 0.00 in0.0 mm
09:15 AM 74.1°F23.4°C 61.6°F16.4°C 65% 2.9 mph SE4.7 kmh SE 7.6 mph12.2 kmh 29.62 in1003.0 mb 0.00 in0.0 mm 0.00 in0.0 mm 0.00 in0.0 mm
09:20 AM 75.7°F24.3°C 62.7°F17.1°C 64% 2.9 mph SE4.7 kmh SE 6.0 mph9.7 kmh 29.61 in1002.7 mb 0.00 in0.0 mm 0.00 in0.0 mm 0.00 in0.0 mm
09:25 AM 77.2°F25.1°C 62.7°F17.1°C 61% 3.9 mph ESE6.3 kmh ESE 8.3 mph13.4 kmh 29.62 in1003.0 mb 0.00 in0.0 mm 0.00 in0.0 mm 0.00 in0.0 mm
09:30 AM 76.3°F24.6°C 60.4°F15.8°C 58% 4.1 mph E6.6 kmh E 8.3 mph13.4 kmh 29.62 in1003.0 mb 0.00 in0.0 mm 0.00 in0.0 mm 0.00 in0.0 mm
09:35 AM 74.8°F23.8°C 60.0°F15.6°C 60% 3.4 mph SE5.5 kmh SE 8.3 mph13.4 kmh 29.61 in1002.7 mb 0.00 in0.0 mm 0.00 in0.0 mm 0.00 in0.0 mm
09:40 AM 74.1°F23.4°C 60.3°F15.7°C 62% 3.1 mph SE5.0 kmh SE 6.0 mph9.7 kmh 29.61 in1002.7 mb 0.00 in0.0 mm 0.00 in0.0 mm 0.00 in0.0 mm
09:43 AM 75.2°F24.0°C 61.3°F16.3°C 62% 3.8 mph E6.1 kmh E 5.4 mph8.7 kmh 29.61 in1002.7 mb 0.00 in0.0 mm 0.00 in0.0 mm 0.00 in0.0 mm
09:45 AM 75.7°F24.3°C 61.8°F16.6°C 62% 3.3 mph E5.3 kmh E 6.9 mph11.1 kmh 29.61 in1002.7 mb 0.00 in0.0 mm 0.00 in0.0 mm 0.00 in0.0 mm
09:50 AM 76.5°F24.7°C 62.0°F16.7°C 61% 4.3 mph ESE6.9 kmh ESE 8.3 mph13.4 kmh 29.61 in1002.7 mb 0.00 in0.0 mm 0.00 in0.0 mm 0.00 in0.0 mm
09:55 AM 76.6°F24.8°C 62.6°F17.0°C 62% 4.7 mph ESE7.6 kmh ESE 8.3 mph13.4 kmh 29.60 in1002.4 mb 0.00 in0.0 mm 0.00 in0.0 mm 0.00 in0.0 mm
10:00 AM 77.9°F25.5°C 62.9°F17.2°C 60% 4.4 mph ESE7.1 kmh ESE 8.3 mph13.4 kmh 29.61 in1002.7 mb 0.00 in0.0 mm 0.00 in0.0 mm 0.00 in0.0 mm
10:05 AM 77.7°F25.4°C 61.8°F16.6°C 58% 4.3 mph E6.9 kmh E 8.3 mph13.4 kmh 29.60 in1002.4 mb 0.00 in0.0 mm 0.00 in0.0 mm 0.00 in0.0 mm
10:10 AM 76.6°F24.8°C 61.7°F16.5°C 60% 4.1 mph E6.6 kmh E 6.9 mph11.1 kmh 29.60 in1002.4 mb 0.00 in0.0 mm 0.00 in0.0 mm 0.00 in0.0 mm
10:13 AM 76.3°F24.6°C 61.4°F16.3°C 60% 3.1 mph ESE5.0 kmh ESE 3.8 mph6.1 kmh 29.60 in1002.4 mb 0.00 in0.0 mm 0.00 in0.0 mm 0.00 in0.0 mm
10:15 AM 75.9°F24.4°C 61.0°F16.1°C 60% 3.5 mph ESE5.6 kmh ESE 6.9 mph11.1 kmh 29.60 in1002.4 mb 0.00 in0.0 mm 0.00 in0.0 mm 0.00 in0.0 mm
10:20 AM 75.2°F24.0°C 60.8°F16.0°C 61% 2.9 mph E4.7 kmh E 6.0 mph9.7 kmh 29.60 in1002.4 mb 0.00 in0.0 mm 0.00 in0.0 mm 0.00 in0.0 mm
10:25 AM 74.8°F23.8°C 61.4°F16.3°C 63% 3.6 mph E5.8 kmh E 6.0 mph9.7 kmh 29.60 in1002.4 mb 0.00 in0.0 mm 0.00 in0.0 mm 0.00 in0.0 mm
10:30 AM 74.5°F23.6°C 61.5°F16.4°C 64% 3.9 mph E6.3 kmh E 6.0 mph9.7 kmh 29.60 in1002.4 mb 0.00 in0.0 mm 0.00 in0.0 mm 0.00 in0.0 mm
10:35 AM 73.8°F23.2°C 61.3°F16.3°C 65% 3.7 mph E6.0 kmh E 6.0 mph9.7 kmh 29.60 in1002.4 mb 0.00 in0.0 mm 0.00 in0.0 mm 0.00 in0.0 mm
10:40 AM 73.2°F22.9°C 60.3°F15.7°C 64% 3.1 mph E5.0 kmh E 6.0 mph9.7 kmh 29.60 in1002.4 mb 0.00 in0.0 mm 0.00 in0.0 mm 0.00 in0.0 mm
10:43 AM 73.0°F22.8°C 60.6°F15.9°C 65% 3.1 mph E5.0 kmh E 3.8 mph6.1 kmh 29.60 in1002.4 mb 0.00 in0.0 mm 0.00 in0.0 mm 0.00 in0.0 mm
10:45 AM 73.0°F22.8°C 60.6°F15.9°C 65% 2.8 mph E4.5 kmh E 6.0 mph9.7 kmh 29.60 in1002.4 mb 0.00 in0.0 mm 0.00 in0.0 mm 0.00 in0.0 mm
10:50 AM 73.4°F23.0°C 61.3°F16.3°C 66% 3.3 mph E5.3 kmh E 5.4 mph8.7 kmh 29.60 in1002.4 mb 0.00 in0.0 mm 0.00 in0.0 mm 0.00 in0.0 mm
10:55 AM 73.9°F23.3°C 62.3°F16.8°C 67% 3.8 mph E6.1 kmh E 6.9 mph11.1 kmh 29.60 in1002.4 mb 0.00 in0.0 mm 0.00 in0.0 mm 0.00 in0.0 mm
11:00 AM 74.3°F23.5°C 62.2°F16.8°C 66% 4.2 mph E6.8 kmh E 6.9 mph11.1 kmh 29.60 in1002.4 mb 0.00 in0.0 mm 0.00 in0.0 mm 0.00 in0.0 mm
11:05 AM 74.5°F23.6°C 62.4°F16.9°C 66% 4.9 mph E7.9 kmh E 8.3 mph13.4 kmh 29.60 in1002.4 mb 0.00 in0.0 mm 0.00 in0.0 mm 0.00 in0.0 mm
11:10 AM 74.1°F23.4°C 62.0°F16.7°C 66% 5.3 mph E8.5 kmh E 8.3 mph13.4 kmh 29.60 in1002.4 mb 0.00 in0.0 mm 0.00 in0.0 mm 0.00 in0.0 mm
11:13 AM 73.9°F23.3°C 61.9°F16.6°C 66% 5.4 mph NE8.7 kmh NE 6.9 mph11.1 kmh 29.60 in1002.4 mb 0.00 in0.0 mm 0.00 in0.0 mm 0.00 in0.0 mm
11:15 AM 73.8°F23.2°C 61.7°F16.5°C 66% 4.4 mph E7.1 kmh E 7.6 mph12.2 kmh 29.59 in1002.0 mb 0.00 in0.0 mm 0.00 in0.0 mm 0.00 in0.0 mm
11:20 AM 73.4°F23.0°C 61.3°F16.3°C 66% 3.7 mph E6.0 kmh E 6.9 mph11.1 kmh 29.59 in1002.0 mb 0.00 in0.0 mm 0.00 in0.0 mm 0.00 in0.0 mm
11:25 AM 73.0°F22.8°C 60.6°F15.9°C 65% 3.5 mph E5.6 kmh E 6.0 mph9.7 kmh 29.59 in1002.0 mb 0.00 in0.0 mm 0.00 in0.0 mm 0.00 in0.0 mm
11:30 AM 72.9°F22.7°C 60.8°F16.0°C 66% 3.3 mph E5.3 kmh E 6.0 mph9.7 kmh 29.59 in1002.0 mb 0.00 in0.0 mm 0.00 in0.0 mm 0.00 in0.0 mm
11:35 AM 73.0°F22.8°C 61.0°F16.1°C 66% 3.9 mph E6.3 kmh E 6.9 mph11.1 kmh 29.59 in1002.0 mb 0.00 in0.0 mm 0.00 in0.0 mm 0.00 in0.0 mm
11:40 AM 73.2°F22.9°C 61.2°F16.2°C 66% 4.2 mph E6.8 kmh E 6.9 mph11.1 kmh 29.59 in1002.0 mb 0.00 in0.0 mm 0.00 in0.0 mm 0.00 in0.0 mm
11:43 AM 73.2°F22.9°C 61.2°F16.2°C 66% 3.8 mph E6.1 kmh E 5.4 mph8.7 kmh 29.59 in1002.0 mb 0.00 in0.0 mm 0.00 in0.0 mm 0.00 in0.0 mm
11:45 AM 73.2°F22.9°C 61.2°F16.2°C 66% 3.9 mph E6.3 kmh E 6.9 mph11.1 kmh 29.59 in1002.0 mb 0.00 in0.0 mm 0.00 in0.0 mm 0.00 in0.0 mm
11:50 AM 73.4°F23.0°C 61.8°F16.6°C 67% 4.0 mph E6.4 kmh E 6.9 mph11.1 kmh 29.59 in1002.0 mb 0.00 in0.0 mm 0.00 in0.0 mm 0.00 in0.0 mm
11:55 AM 73.4°F23.0°C 61.8°F16.6°C 67% 3.6 mph E5.8 kmh E 6.9 mph11.1 kmh 29.59 in1002.0 mb 0.00 in0.0 mm 0.00 in0.0 mm 0.00 in0.0 mm
12:00 PM 73.2°F22.9°C 61.2°F16.2°C 66% 2.4 mph E3.9 kmh E 4.5 mph7.2 kmh 29.59 in1002.0 mb 0.00 in0.0 mm 0.00 in0.0 mm 0.00 in0.0 mm
12:05 PM 73.0°F22.8°C 61.4°F16.3°C 67% 2.0 mph E3.2 kmh E 4.5 mph7.2 kmh 29.59 in1002.0 mb 0.00 in0.0 mm 0.00 in0.0 mm 0.00 in0.0 mm
12:10 PM 72.9°F22.7°C 61.3°F16.3°C 67% 1.9 mph E3.1 kmh E 3.8 mph6.1 kmh 29.59 in1002.0 mb 0.00 in0.0 mm 0.00 in0.0 mm 0.00 in0.0 mm
12:13 PM 73.0°F22.8°C 61.4°F16.3°C 67% 2.2 mph E3.5 kmh E 3.1 mph5.0 kmh 29.59 in1002.0 mb 0.00 in0.0 mm 0.00 in0.0 mm 0.00 in0.0 mm
12:25 PM 72.5°F22.5°C 61.3°F16.3°C 68% 1.3 mph E2.1 kmh E 4.5 mph7.2 kmh 29.59 in1002.0 mb 0.00 in0.0 mm 0.00 in0.0 mm 0.00 in0.0 mm
12:30 PM 72.3°F22.4°C 62.0°F16.7°C 70% 0.5 mph N0.8 kmh N 3.1 mph5.0 kmh 29.59 in1002.0 mb 0.00 in0.0 mm 0.00 in0.0 mm 0.00 in0.0 mm
12:35 PM 72.5°F22.5°C 62.6°F17.0°C 71% 1.3 mph E2.1 kmh E 4.5 mph7.2 kmh 29.59 in1002.0 mb 0.00 in0.0 mm 0.00 in0.0 mm 0.00 in0.0 mm
12:40 PM 72.9°F22.7°C 62.9°F17.2°C 71% 2.4 mph ESE3.9 kmh ESE 5.4 mph8.7 kmh 29.58 in1001.7 mb 0.00 in0.0 mm 0.00 in0.0 mm 0.00 in0.0 mm
12:43 PM 72.9°F22.7°C 62.9°F17.2°C 71% 1.6 mph E2.6 kmh E 2.2 mph3.5 kmh 29.59 in1002.0 mb 0.00 in0.0 mm 0.00 in0.0 mm 0.00 in0.0 mm
12:45 PM 73.0°F22.8°C 63.1°F17.3°C 71% 2.7 mph E4.3 kmh E 5.4 mph8.7 kmh 29.58 in1001.7 mb 0.00 in0.0 mm 0.00 in0.0 mm 0.00 in0.0 mm
12:50 PM 73.0°F22.8°C 63.1°F17.3°C 71% 2.5 mph E4.0 kmh E 4.5 mph7.2 kmh 29.59 in1002.0 mb 0.00 in0.0 mm 0.00 in0.0 mm 0.00 in0.0 mm
12:55 PM 72.9°F22.7°C 62.9°F17.2°C 71% 2.6 mph E4.2 kmh E 4.5 mph7.2 kmh 29.59 in1002.0 mb 0.00 in0.0 mm 0.00 in0.0 mm 0.00 in0.0 mm
01:00 PM 72.9°F22.7°C 62.9°F17.2°C 71% 2.5 mph ESE4.0 kmh ESE 5.4 mph8.7 kmh 29.58 in1001.7 mb 0.00 in0.0 mm 0.00 in0.0 mm 0.00 in0.0 mm
01:05 PM 72.9°F22.7°C 62.9°F17.2°C 71% 3.4 mph E5.5 kmh E 5.4 mph8.7 kmh 29.58 in1001.7 mb 0.00 in0.0 mm 0.00 in0.0 mm 0.00 in0.0 mm
01:10 PM 75.0°F23.9°C 65.8°F18.8°C 73% 4.1 mph E6.6 kmh E 6.0 mph9.7 kmh 29.57 in1001.4 mb 0.00 in0.0 mm 0.00 in0.0 mm 0.00 in0.0 mm
01:13 PM 77.4°F25.2°C 66.8°F19.3°C 70% 5.4 mph E8.7 kmh E 6.9 mph11.1 kmh 29.57 in1001.4 mb 0.00 in0.0 mm 0.00 in0.0 mm 0.00 in0.0 mm
01:15 PM 79.0°F26.1°C 66.6°F19.2°C 66% 4.0 mph E6.4 kmh E 6.9 mph11.1 kmh 29.57 in1001.4 mb 0.00 in0.0 mm 0.00 in0.0 mm 0.00 in0.0 mm
01:20 PM 81.1°F27.3°C 66.4°F19.1°C 61% 3.3 mph E5.3 kmh E 6.9 mph11.1 kmh 29.57 in1001.4 mb 0.00 in0.0 mm 0.00 in0.0 mm 0.00 in0.0 mm
01:25 PM 81.1°F27.3°C 64.5°F18.1°C 57% 2.9 mph E4.7 kmh E 6.0 mph9.7 kmh 29.57 in1001.4 mb 0.00 in0.0 mm 0.00 in0.0 mm 0.00 in0.0 mm
01:30 PM 80.2°F26.8°C 63.6°F17.6°C 57% 2.8 mph E4.5 kmh E 5.4 mph8.7 kmh 29.58 in1001.7 mb 0.00 in0.0 mm 0.00 in0.0 mm 0.00 in0.0 mm
01:35 PM 81.1°F27.3°C 64.0°F17.8°C 56% 2.4 mph E3.9 kmh E 6.0 mph9.7 kmh 29.57 in1001.4 mb 0.00 in0.0 mm 0.00 in0.0 mm 0.00 in0.0 mm
01:40 PM 83.5°F28.6°C 65.1°F18.4°C 54% 2.2 mph ESE3.5 kmh ESE 6.0 mph9.7 kmh 29.57 in1001.4 mb 0.00 in0.0 mm 0.00 in0.0 mm 0.00 in0.0 mm
01:43 PM 84.0°F28.9°C 65.0°F18.3°C 53% 1.6 mph E2.6 kmh E 3.8 mph6.1 kmh 29.57 in1001.4 mb 0.00 in0.0 mm 0.00 in0.0 mm 0.00 in0.0 mm
01:45 PM 83.8°F28.8°C 64.9°F18.3°C 53% 2.7 mph E4.3 kmh E 6.0 mph9.7 kmh 29.57 in1001.4 mb 0.00 in0.0 mm 0.00 in0.0 mm 0.00 in0.0 mm
01:50 PM 82.4°F28.0°C 63.0°F17.2°C 52% 3.3 mph E5.3 kmh E 6.0 mph9.7 kmh 29.57 in1001.4 mb 0.00 in0.0 mm 0.00 in0.0 mm 0.00 in0.0 mm
01:55 PM 81.9°F27.7°C 63.6°F17.6°C 54% 3.3 mph E5.3 kmh E 6.9 mph11.1 kmh 29.57 in1001.4 mb 0.00 in0.0 mm 0.00 in0.0 mm 0.00 in0.0 mm
02:00 PM 84.0°F28.9°C 65.0°F18.3°C 53% 3.8 mph E6.1 kmh E 6.9 mph11.1 kmh 29.57 in1001.4 mb 0.00 in0.0 mm 0.00 in0.0 mm 0.00 in0.0 mm
02:05 PM 86.5°F30.3°C 65.1°F18.4°C 49% 4.4 mph E7.1 kmh E 7.6 mph12.2 kmh 29.57 in1001.4 mb 0.00 in0.0 mm 0.00 in0.0 mm 0.00 in0.0 mm
02:10 PM 87.6°F30.9°C 64.9°F18.3°C 47% 4.9 mph E7.9 kmh E 9.2 mph14.8 kmh 29.57 in1001.4 mb 0.00 in0.0 mm 0.00 in0.0 mm 0.00 in0.0 mm
02:13 PM 87.8°F31.0°C 63.8°F17.7°C 45% 3.8 mph ENE6.1 kmh ENE 6.0 mph9.7 kmh 29.57 in1001.4 mb 0.00 in0.0 mm 0.00 in0.0 mm 0.00 in0.0 mm
02:15 PM 87.4°F30.8°C 64.1°F17.8°C 46% 4.8 mph ESE7.7 kmh ESE 9.2 mph14.8 kmh 29.57 in1001.4 mb 0.00 in0.0 mm 0.00 in0.0 mm 0.00 in0.0 mm
02:20 PM 85.6°F29.8°C 63.7°F17.6°C 48% 4.1 mph E6.6 kmh E 9.2 mph14.8 kmh 29.57 in1001.4 mb 0.00 in0.0 mm 0.00 in0.0 mm 0.00 in0.0 mm
02:25 PM 85.5°F29.7°C 63.5°F17.5°C 48% 4.4 mph E7.1 kmh E 7.6 mph12.2 kmh 29.57 in1001.4 mb 0.00 in0.0 mm 0.00 in0.0 mm 0.00 in0.0 mm
02:30 PM 84.4°F29.1°C 62.5°F16.9°C 48% 4.6 mph E7.4 kmh E 7.6 mph12.2 kmh 29.57 in1001.4 mb 0.00 in0.0 mm 0.00 in0.0 mm 0.00 in0.0 mm
02:35 PM 83.5°F28.6°C 62.9°F17.2°C 50% 4.0 mph E6.4 kmh E 6.9 mph11.1 kmh 29.56 in1001.0 mb 0.00 in0.0 mm 0.00 in0.0 mm 0.00 in0.0 mm
02:40 PM 83.8°F28.8°C 63.8°F17.7°C 51% 3.3 mph E5.3 kmh E 5.4 mph8.7 kmh 29.56 in1001.0 mb 0.00 in0.0 mm 0.00 in0.0 mm 0.00 in0.0 mm
02:43 PM 83.5°F28.6°C 62.9°F17.2°C 50% 3.8 mph SE6.1 kmh SE 5.4 mph8.7 kmh 29.56 in1001.0 mb 0.00 in0.0 mm 0.00 in0.0 mm 0.00 in0.0 mm
02:45 PM 83.1°F28.4°C 63.1°F17.3°C 51% 3.4 mph E5.5 kmh E 6.9 mph11.1 kmh 29.56 in1001.0 mb 0.00 in0.0 mm 0.00 in0.0 mm 0.00 in0.0 mm
02:50 PM 81.5°F27.5°C 62.2°F16.8°C 52% 3.0 mph E4.8 kmh E 6.9 mph11.1 kmh 29.56 in1001.0 mb 0.00 in0.0 mm 0.00 in0.0 mm 0.00 in0.0 mm
02:55 PM 80.1°F26.7°C 61.9°F16.6°C 54% 2.9 mph E4.7 kmh E 6.0 mph9.7 kmh 29.56 in1001.0 mb 0.00 in0.0 mm 0.00 in0.0 mm 0.00 in0.0 mm
03:00 PM 78.6°F25.9°C 61.6°F16.4°C 56% 3.9 mph E6.3 kmh E 7.6 mph12.2 kmh 29.56 in1001.0 mb 0.00 in0.0 mm 0.00 in0.0 mm 0.00 in0.0 mm
03:05 PM 75.9°F24.4°C 60.1°F15.6°C 58% 5.8 mph SE9.3 kmh SE 15.9 mph25.6 kmh 29.58 in1001.7 mb 0.00 in0.0 mm 0.00 in0.0 mm 0.00 in0.0 mm
03:10 PM 69.1°F20.6°C 58.9°F14.9°C 70% 9.4 mph SW15.1 kmh SW 20.6 mph33.2 kmh 29.57 in1001.4 mb 0.00 in0.0 mm 0.00 in0.0 mm 0.00 in0.0 mm
03:13 PM 67.5°F19.7°C 58.9°F14.9°C 74% 13.6 mph SW21.9 kmh SW 17.4 mph28.0 kmh 29.58 in1001.7 mb 0.00 in0.0 mm 0.00 in0.0 mm 0.00 in0.0 mm
03:15 PM 66.4°F19.1°C 58.9°F14.9°C 77% 12.2 mph SW19.6 kmh SW 20.6 mph33.2 kmh 29.58 in1001.7 mb 0.00 in0.0 mm 0.00 in0.0 mm 0.00 in0.0 mm
03:20 PM 64.9°F18.3°C 59.0°F15.0°C 81% 12.7 mph SW20.4 kmh SW 19.0 mph30.6 kmh 29.58 in1001.7 mb 0.00 in0.0 mm 0.00 in0.0 mm 0.00 in0.0 mm
03:25 PM 64.4°F18.0°C 59.8°F15.4°C 85% 12.4 mph SW20.0 kmh SW 19.0 mph30.6 kmh 29.59 in1002.0 mb 0.00 in0.0 mm 0.00 in0.0 mm 0.00 in0.0 mm
03:30 PM 63.9°F17.7°C 59.3°F15.2°C 85% 11.5 mph SW18.5 kmh SW 17.4 mph28.0 kmh 29.59 in1002.0 mb 0.00 in0.0 mm 0.00 in0.0 mm 0.00 in0.0 mm
03:35 PM 63.3°F17.4°C 58.4°F14.7°C 84% 11.1 mph SW17.9 kmh SW 17.4 mph28.0 kmh 29.59 in1002.0 mb 0.00 in0.0 mm 0.00 in0.0 mm 0.00 in0.0 mm
03:40 PM 62.8°F17.1°C 58.2°F14.6°C 85% 11.0 mph SW17.7 kmh SW 17.4 mph28.0 kmh 29.59 in1002.0 mb 0.00 in0.0 mm 0.00 in0.0 mm 0.00 in0.0 mm
03:43 PM 62.4°F16.9°C 58.5°F14.7°C 87% 11.4 mph NW18.3 kmh NW 15.9 mph25.6 kmh 29.59 in1002.0 mb 0.00 in0.0 mm 0.00 in0.0 mm 0.00 in0.0 mm
03:45 PM 62.4°F16.9°C 58.5°F14.7°C 87% 10.7 mph SW17.2 kmh SW 17.4 mph28.0 kmh 29.59 in1002.0 mb 0.00 in0.0 mm 0.00 in0.0 mm 0.00 in0.0 mm
03:50 PM 61.9°F16.6°C 58.3°F14.6°C 88% 9.8 mph SW15.8 kmh SW 15.9 mph25.6 kmh 29.60 in1002.4 mb 0.00 in0.0 mm 0.00 in0.0 mm 0.00 in0.0 mm
03:55 PM 61.5°F16.4°C 58.2°F14.6°C 89% 8.8 mph WSW14.2 kmh WSW 14.5 mph23.3 kmh 29.60 in1002.4 mb 0.00 in0.0 mm 0.00 in0.0 mm 0.00 in0.0 mm
04:00 PM 61.3°F16.3°C 58.4°F14.7°C 90% 8.8 mph SW14.2 kmh SW 15.9 mph25.6 kmh 29.60 in1002.4 mb 0.01 in0.3 mm 0.01 in0.3 mm 0.01 in0.3 mm
04:05 PM 61.2°F16.2°C 58.2°F14.6°C 90% 8.2 mph SW13.2 kmh SW 15.9 mph25.6 kmh 29.61 in1002.7 mb 0.02 in0.5 mm 0.12 in3.0 mm 0.02 in0.5 mm
04:10 PM 61.0°F16.1°C 58.3°F14.6°C 91% 7.8 mph SW12.6 kmh SW 13.0 mph20.9 kmh 29.61 in1002.7 mb 0.02 in0.5 mm 0.00 in0.0 mm 0.02 in0.5 mm
04:13 PM 60.8°F16.0°C 58.5°F14.7°C 92% 6.0 mph SW9.7 kmh SW 8.3 mph13.4 kmh 29.61 in1002.7 mb 0.02 in0.5 mm 0.00 in0.0 mm 0.02 in0.5 mm
04:15 PM 60.8°F16.0°C 58.5°F14.7°C 92% 7.1 mph SW11.4 kmh SW 13.0 mph20.9 kmh 29.61 in1002.7 mb 0.02 in0.5 mm 0.00 in0.0 mm 0.02 in0.5 mm
04:20 PM 60.8°F16.0°C 58.5°F14.7°C 92% 6.6 mph SW10.6 kmh SW 9.8 mph15.8 kmh 29.61 in1002.7 mb 0.02 in0.5 mm 0.00 in0.0 mm 0.02 in0.5 mm
04:25 PM 60.8°F16.0°C 58.8°F14.9°C 93% 6.6 mph SW10.6 kmh SW 9.8 mph15.8 kmh 29.61 in1002.7 mb 0.02 in0.5 mm 0.00 in0.0 mm 0.02 in0.5 mm
04:30 PM 60.8°F16.0°C 58.8°F14.9°C 93% 6.4 mph SW10.3 kmh SW 9.2 mph14.8 kmh 29.61 in1002.7 mb 0.02 in0.5 mm 0.00 in0.0 mm 0.02 in0.5 mm
04:35 PM 60.6°F15.9°C 58.9°F14.9°C 94% 6.7 mph SW10.8 kmh SW 9.8 mph15.8 kmh 29.61 in1002.7 mb 0.02 in0.5 mm 0.00 in0.0 mm 0.02 in0.5 mm
04:40 PM 60.6°F15.9°C 58.9°F14.9°C 94% 6.6 mph SW10.6 kmh SW 10.7 mph17.2 kmh 29.61 in1002.7 mb 0.05 in1.3 mm 0.36 in9.1 mm 0.05 in1.3 mm
04:43 PM 60.4°F15.8°C 58.7°F14.8°C 94% 5.4 mph NW8.7 kmh NW 7.6 mph12.2 kmh 29.61 in1002.7 mb 0.07 in1.8 mm 0.40 in10.2 mm 0.07 in1.8 mm
04:45 PM 60.4°F15.8°C 58.7°F14.8°C 94% 6.2 mph SW10.0 kmh SW 10.7 mph17.2 kmh 29.61 in1002.7 mb 0.07 in1.8 mm 0.00 in0.0 mm 0.07 in1.8 mm
04:50 PM 60.3°F15.7°C 58.5°F14.7°C 94% 5.2 mph SW8.4 kmh SW 9.2 mph14.8 kmh 29.61 in1002.7 mb 0.07 in1.8 mm 0.00 in0.0 mm 0.07 in1.8 mm
04:55 PM 60.1°F15.6°C 58.3°F14.6°C 94% 4.2 mph SW6.8 kmh SW 8.3 mph13.4 kmh 29.62 in1003.0 mb 0.07 in1.8 mm 0.00 in0.0 mm 0.07 in1.8 mm
05:00 PM 60.1°F15.6°C 58.3°F14.6°C 94% 4.4 mph SW7.1 kmh SW 9.8 mph15.8 kmh 29.62 in1003.0 mb 0.06 in1.5 mm 0.00 in0.0 mm 0.07 in1.8 mm
05:05 PM 59.9°F15.5°C 58.2°F14.6°C 94% 4.9 mph SW7.9 kmh SW 9.8 mph15.8 kmh 29.62 in1003.0 mb 0.05 in1.3 mm 0.00 in0.0 mm 0.07 in1.8 mm
05:10 PM 59.9°F15.5°C 58.5°F14.7°C 95% 4.3 mph SW6.9 kmh SW 8.3 mph13.4 kmh 29.62 in1003.0 mb 0.05 in1.3 mm 0.00 in0.0 mm 0.07 in1.8 mm
05:13 PM 59.9°F15.5°C 58.5°F14.7°C 95% 3.8 mph NW6.1 kmh NW 5.4 mph8.7 kmh 29.62 in1003.0 mb 0.05 in1.3 mm 0.00 in0.0 mm 0.07 in1.8 mm
05:15 PM 59.9°F15.5°C 58.5°F14.7°C 95% 3.8 mph SW6.1 kmh SW 6.9 mph11.1 kmh 29.63 in1003.4 mb 0.05 in1.3 mm 0.00 in0.0 mm 0.07 in1.8 mm
05:20 PM 59.9°F15.5°C 58.5°F14.7°C 95% 3.7 mph WSW6.0 kmh WSW 6.0 mph9.7 kmh 29.63 in1003.4 mb 0.05 in1.3 mm 0.00 in0.0 mm 0.07 in1.8 mm
05:25 PM 59.9°F15.5°C 58.5°F14.7°C 95% 3.9 mph WSW6.3 kmh WSW 6.9 mph11.1 kmh 29.63 in1003.4 mb 0.05 in1.3 mm 0.00 in0.0 mm 0.07 in1.8 mm
05:30 PM 59.9°F15.5°C 58.5°F14.7°C 95% 4.0 mph SW6.4 kmh SW 7.6 mph12.2 kmh 29.63 in1003.4 mb 0.05 in1.3 mm 0.00 in0.0 mm 0.07 in1.8 mm
05:35 PM 59.7°F15.4°C 58.3°F14.6°C 95% 4.0 mph SW6.4 kmh SW 7.6 mph12.2 kmh 29.64 in1003.7 mb 0.04 in1.0 mm 0.00 in0.0 mm 0.07 in1.8 mm
05:40 PM 59.7°F15.4°C 58.3°F14.6°C 95% 3.4 mph WSW5.5 kmh WSW 6.9 mph11.1 kmh 29.63 in1003.4 mb 0.02 in0.5 mm 0.00 in0.0 mm 0.07 in1.8 mm
05:43 PM 59.7°F15.4°C 58.3°F14.6°C 95% 3.1 mph SW5.0 kmh SW 3.8 mph6.1 kmh 29.63 in1003.4 mb 0.00 in0.0 mm 0.00 in0.0 mm 0.07 in1.8 mm
05:45 PM 59.7°F15.4°C 58.3°F14.6°C 95% 2.7 mph WSW4.3 kmh WSW 6.0 mph9.7 kmh 29.64 in1003.7 mb 0.00 in0.0 mm 0.00 in0.0 mm 0.07 in1.8 mm
05:50 PM 59.7°F15.4°C 58.3°F14.6°C 95% 2.3 mph WSW3.7 kmh WSW 5.4 mph8.7 kmh 29.64 in1003.7 mb 0.00 in0.0 mm 0.00 in0.0 mm 0.07 in1.8 mm
05:55 PM 59.7°F15.4°C 58.3°F14.6°C 95% 1.9 mph WSW3.1 kmh WSW 4.5 mph7.2 kmh 29.64 in1003.7 mb 0.00 in0.0 mm 0.00 in0.0 mm 0.07 in1.8 mm
06:00 PM 59.5°F15.3°C 58.1°F14.5°C 95% 2.0 mph WSW3.2 kmh WSW 4.5 mph7.2 kmh 29.63 in1003.4 mb 0.00 in0.0 mm 0.00 in0.0 mm 0.07 in1.8 mm
06:05 PM 59.5°F15.3°C 58.1°F14.5°C 95% 1.8 mph SW2.9 kmh SW 4.5 mph7.2 kmh 29.63 in1003.4 mb 0.00 in0.0 mm 0.00 in0.0 mm 0.07 in1.8 mm
06:10 PM 59.4°F15.2°C 57.9°F14.4°C 95% 1.5 mph WSW2.4 kmh WSW 3.8 mph6.1 kmh 29.63 in1003.4 mb 0.00 in0.0 mm 0.00 in0.0 mm 0.07 in1.8 mm
06:13 PM 59.4°F15.2°C 57.9°F14.4°C 95% 1.6 mph NW2.6 kmh NW 2.2 mph3.5 kmh 29.63 in1003.4 mb 0.00 in0.0 mm 0.00 in0.0 mm 0.07 in1.8 mm
06:15 PM 59.4°F15.2°C 57.9°F14.4°C 95% 1.5 mph W2.4 kmh W 3.1 mph5.0 kmh 29.64 in1003.7 mb 0.00 in0.0 mm 0.00 in0.0 mm 0.07 in1.8 mm
06:20 PM 59.4°F15.2°C 57.9°F14.4°C 95% 1.5 mph W2.4 kmh W 3.1 mph5.0 kmh 29.64 in1003.7 mb 0.00 in0.0 mm 0.00 in0.0 mm 0.07 in1.8 mm
06:25 PM 59.5°F15.3°C 58.1°F14.5°C 95% 1.3 mph WSW2.1 kmh WSW 3.1 mph5.0 kmh 29.64 in1003.7 mb 0.01 in0.3 mm 0.12 in3.0 mm 0.08 in2.0 mm
06:30 PM 59.5°F15.3°C 58.1°F14.5°C 95% 0.8 mph WNW1.3 kmh WNW 3.1 mph5.0 kmh 29.65 in1004.1 mb 0.01 in0.3 mm 0.00 in0.0 mm 0.08 in2.0 mm
06:35 PM 59.5°F15.3°C 58.1°F14.5°C 95% 0.9 mph ESE1.4 kmh ESE 4.5 mph7.2 kmh 29.64 in1003.7 mb 0.01 in0.3 mm 0.00 in0.0 mm 0.08 in2.0 mm
06:40 PM 59.5°F15.3°C 58.1°F14.5°C 95% 1.8 mph SE2.9 kmh SE 4.5 mph7.2 kmh 29.64 in1003.7 mb 0.01 in0.3 mm 0.00 in0.0 mm 0.08 in2.0 mm
06:43 PM 59.5°F15.3°C 58.1°F14.5°C 95% 1.6 mph W2.6 kmh W 3.1 mph5.0 kmh 29.65 in1004.1 mb 0.01 in0.3 mm 0.00 in0.0 mm 0.08 in2.0 mm
06:45 PM 59.5°F15.3°C 58.1°F14.5°C 95% 1.9 mph ESE3.1 kmh ESE 4.5 mph7.2 kmh 29.65 in1004.1 mb 0.01 in0.3 mm 0.00 in0.0 mm 0.08 in2.0 mm
06:50 PM 59.4°F15.2°C 57.9°F14.4°C 95% 1.5 mph E2.4 kmh E 4.5 mph7.2 kmh 29.65 in1004.1 mb 0.01 in0.3 mm 0.00 in0.0 mm 0.08 in2.0 mm
06:55 PM 59.4°F15.2°C 57.9°F14.4°C 95% 1.4 mph N2.3 kmh N 4.5 mph7.2 kmh 29.65 in1004.1 mb 0.01 in0.3 mm 0.00 in0.0 mm 0.08 in2.0 mm
07:00 PM 59.2°F15.1°C 57.7°F14.3°C 95% 1.2 mph NNW1.9 kmh NNW 4.5 mph7.2 kmh 29.65 in1004.1 mb 0.01 in0.3 mm 0.00 in0.0 mm 0.08 in2.0 mm
07:05 PM 59.2°F15.1°C 57.7°F14.3°C 95% 1.1 mph N1.8 kmh N 4.5 mph7.2 kmh 29.65 in1004.1 mb 0.01 in0.3 mm 0.00 in0.0 mm 0.08 in2.0 mm
07:10 PM 59.2°F15.1°C 57.7°F14.3°C 95% 1.2 mph NNE1.9 kmh NNE 3.8 mph6.1 kmh 29.65 in1004.1 mb 0.01 in0.3 mm 0.00 in0.0 mm 0.08 in2.0 mm
07:13 PM 59.0°F15.0°C 57.6°F14.2°C 95% 2.2 mph S3.5 kmh S 3.8 mph6.1 kmh 29.65 in1004.1 mb 0.01 in0.3 mm 0.00 in0.0 mm 0.08 in2.0 mm
07:15 PM 59.0°F15.0°C 57.6°F14.2°C 95% 2.0 mph SE3.2 kmh SE 5.4 mph8.7 kmh 29.65 in1004.1 mb 0.01 in0.3 mm 0.00 in0.0 mm 0.08 in2.0 mm
07:20 PM 59.0°F15.0°C 57.6°F14.2°C 95% 3.0 mph SSE4.8 kmh SSE 6.9 mph11.1 kmh 29.65 in1004.1 mb 0.01 in0.3 mm 0.00 in0.0 mm 0.08 in2.0 mm
07:25 PM 59.2°F15.1°C 57.7°F14.3°C 95% 3.4 mph SSE5.5 kmh SSE 6.9 mph11.1 kmh 29.66 in1004.4 mb 0.00 in0.0 mm 0.00 in0.0 mm 0.08 in2.0 mm
07:30 PM 59.2°F15.1°C 57.7°F14.3°C 95% 3.1 mph SSE5.0 kmh SSE 6.9 mph11.1 kmh 29.65 in1004.1 mb 0.00 in0.0 mm 0.00 in0.0 mm 0.08 in2.0 mm
07:35 PM 59.2°F15.1°C 57.7°F14.3°C 95% 3.0 mph S4.8 kmh S 6.0 mph9.7 kmh 29.65 in1004.1 mb 0.00 in0.0 mm 0.00 in0.0 mm 0.08 in2.0 mm
07:40 PM 59.4°F15.2°C 57.9°F14.4°C 95% 2.7 mph SSE4.3 kmh SSE 6.0 mph9.7 kmh 29.66 in1004.4 mb 0.00 in0.0 mm 0.00 in0.0 mm 0.08 in2.0 mm
07:43 PM 59.4°F15.2°C 57.9°F14.4°C 95% 1.6 mph E2.6 kmh E 3.1 mph5.0 kmh 29.66 in1004.4 mb 0.00 in0.0 mm 0.00 in0.0 mm 0.08 in2.0 mm
07:45 PM 59.4°F15.2°C 58.2°F14.6°C 96% 1.9 mph SE3.1 kmh SE 4.5 mph7.2 kmh 29.66 in1004.4 mb 0.00 in0.0 mm 0.00 in0.0 mm 0.08 in2.0 mm
07:50 PM 59.4°F15.2°C 58.2°F14.6°C 96% 2.0 mph SE3.2 kmh SE 5.4 mph8.7 kmh 29.66 in1004.4 mb 0.00 in0.0 mm 0.00 in0.0 mm 0.08 in2.0 mm
07:55 PM 59.4°F15.2°C 58.2°F14.6°C 96% 2.7 mph SSE4.3 kmh SSE 6.0 mph9.7 kmh 29.67 in1004.7 mb 0.00 in0.0 mm 0.00 in0.0 mm 0.08 in2.0 mm
08:00 PM 59.4°F15.2°C 58.2°F14.6°C 96% 2.8 mph S4.5 kmh S 6.0 mph9.7 kmh 29.67 in1004.7 mb 0.00 in0.0 mm 0.00 in0.0 mm 0.08 in2.0 mm
08:05 PM 59.4°F15.2°C 58.2°F14.6°C 96% 2.4 mph SSE3.9 kmh SSE 6.0 mph9.7 kmh 29.66 in1004.4 mb 0.00 in0.0 mm 0.00 in0.0 mm 0.08 in2.0 mm
08:10 PM 59.4°F15.2°C 58.2°F14.6°C 96% 2.6 mph SE4.2 kmh SE 6.9 mph11.1 kmh 29.67 in1004.7 mb 0.00 in0.0 mm 0.00 in0.0 mm 0.08 in2.0 mm
08:13 PM 59.4°F15.2°C 58.2°F14.6°C 96% 2.2 mph S3.5 kmh S 6.0 mph9.7 kmh 29.66 in1004.4 mb 0.00 in0.0 mm 0.00 in0.0 mm 0.08 in2.0 mm
08:15 PM 59.4°F15.2°C 58.2°F14.6°C 96% 2.9 mph S4.7 kmh S 6.9 mph11.1 kmh 29.67 in1004.7 mb 0.00 in0.0 mm 0.00 in0.0 mm 0.08 in2.0 mm
08:20 PM 59.4°F15.2°C 58.2°F14.6°C 96% 2.5 mph S4.0 kmh S 6.9 mph11.1 kmh 29.67 in1004.7 mb 0.00 in0.0 mm 0.00 in0.0 mm 0.08 in2.0 mm
08:25 PM 59.4°F15.2°C 58.2°F14.6°C 96% 1.9 mph ESE3.1 kmh ESE 4.5 mph7.2 kmh 29.67 in1004.7 mb 0.00 in0.0 mm 0.00 in0.0 mm 0.08 in2.0 mm
08:30 PM 59.2°F15.1°C 58.0°F14.4°C 96% 1.5 mph NW2.4 kmh NW 3.8 mph6.1 kmh 29.67 in1004.7 mb 0.00 in0.0 mm 0.00 in0.0 mm 0.08 in2.0 mm
08:35 PM 59.0°F15.0°C 57.9°F14.4°C 96% 1.2 mph SW1.9 kmh SW 4.5 mph7.2 kmh 29.67 in1004.7 mb 0.00 in0.0 mm 0.00 in0.0 mm 0.08 in2.0 mm
08:40 PM 59.0°F15.0°C 57.9°F14.4°C 96% 0.8 mph W1.3 kmh W 4.5 mph7.2 kmh 29.67 in1004.7 mb 0.00 in0.0 mm 0.00 in0.0 mm 0.08 in2.0 mm
08:43 PM 58.8°F14.9°C 58.0°F14.4°C 97% Calm Calm 0.7 mph1.1 kmh 29.66 in1004.4 mb 0.00 in0.0 mm 0.00 in0.0 mm 0.08 in2.0 mm
08:45 PM 58.8°F14.9°C 58.0°F14.4°C 97% 0.6 mph NW1.0 kmh NW 2.2 mph3.5 kmh 29.67 in1004.7 mb 0.00 in0.0 mm 0.00 in0.0 mm 0.08 in2.0 mm
08:50 PM 58.6°F14.8°C 57.8°F14.3°C 97% 0.6 mph NW1.0 kmh NW 2.2 mph3.5 kmh 29.66 in1004.4 mb 0.00 in0.0 mm 0.00 in0.0 mm 0.08 in2.0 mm
08:55 PM 58.5°F14.7°C 57.6°F14.2°C 97% 0.5 mph NNW0.8 kmh NNW 2.2 mph3.5 kmh 29.67 in1004.7 mb 0.00 in0.0 mm 0.00 in0.0 mm 0.08 in2.0 mm
09:00 PM 58.5°F14.7°C 57.6°F14.2°C 97% 0.7 mph SW1.1 kmh SW 3.8 mph6.1 kmh 29.67 in1004.7 mb 0.00 in0.0 mm 0.00 in0.0 mm 0.08 in2.0 mm
09:05 PM 58.3°F14.6°C 57.4°F14.1°C 97% 1.5 mph SSE2.4 kmh SSE 5.4 mph8.7 kmh 29.66 in1004.4 mb 0.00 in0.0 mm 0.00 in0.0 mm 0.08 in2.0 mm
09:10 PM 58.1°F14.5°C 57.3°F14.1°C 97% 1.4 mph SSE2.3 kmh SSE 5.4 mph8.7 kmh 29.67 in1004.7 mb 0.00 in0.0 mm 0.00 in0.0 mm 0.08 in2.0 mm
09:13 PM 58.1°F14.5°C 57.3°F14.1°C 97% 1.6 mph E2.6 kmh E 3.8 mph6.1 kmh 29.67 in1004.7 mb 0.00 in0.0 mm 0.00 in0.0 mm 0.08 in2.0 mm
09:15 PM 58.1°F14.5°C 57.3°F14.1°C 97% 1.5 mph S2.4 kmh S 4.5 mph7.2 kmh 29.67 in1004.7 mb 0.00 in0.0 mm 0.00 in0.0 mm 0.08 in2.0 mm
09:20 PM 58.1°F14.5°C 57.3°F14.1°C 97% 1.9 mph SSE3.1 kmh SSE 4.5 mph7.2 kmh 29.67 in1004.7 mb 0.00 in0.0 mm 0.00 in0.0 mm 0.08 in2.0 mm
09:25 PM 57.9°F14.4°C 57.1°F13.9°C 97% 1.9 mph SE3.1 kmh SE 5.4 mph8.7 kmh 29.67 in1004.7 mb 0.00 in0.0 mm 0.00 in0.0 mm 0.08 in2.0 mm
09:30 PM 57.9°F14.4°C 57.1°F13.9°C 97% 2.1 mph ESE3.4 kmh ESE 6.0 mph9.7 kmh 29.67 in1004.7 mb 0.00 in0.0 mm 0.00 in0.0 mm 0.08 in2.0 mm
09:35 PM 57.9°F14.4°C 57.1°F13.9°C 97% 2.3 mph E3.7 kmh E 6.0 mph9.7 kmh 29.67 in1004.7 mb 0.00 in0.0 mm 0.00 in0.0 mm 0.08 in2.0 mm
09:40 PM 57.9°F14.4°C 57.1°F13.9°C 97% 1.9 mph NE3.1 kmh NE 5.4 mph8.7 kmh 29.67 in1004.7 mb 0.00 in0.0 mm 0.00 in0.0 mm 0.08 in2.0 mm
09:43 PM 57.9°F14.4°C 57.1°F13.9°C 97% 1.6 mph N2.6 kmh N 3.8 mph6.1 kmh 29.67 in1004.7 mb 0.00 in0.0 mm 0.00 in0.0 mm 0.08 in2.0 mm
09:45 PM 57.9°F14.4°C 57.1°F13.9°C 97% 1.5 mph NE2.4 kmh NE 5.4 mph8.7 kmh 29.67 in1004.7 mb 0.00 in0.0 mm 0.00 in0.0 mm 0.08 in2.0 mm
09:50 PM 57.9°F14.4°C 57.1°F13.9°C 97% 1.5 mph N2.4 kmh N 5.4 mph8.7 kmh 29.67 in1004.7 mb 0.00 in0.0 mm 0.00 in0.0 mm 0.08 in2.0 mm
09:55 PM 57.9°F14.4°C 57.1°F13.9°C 97% 1.5 mph N2.4 kmh N 4.5 mph7.2 kmh 29.67 in1004.7 mb 0.00 in0.0 mm 0.00 in0.0 mm 0.08 in2.0 mm
10:00 PM 57.7°F14.3°C 56.9°F13.8°C 97% 1.6 mph N2.6 kmh N 7.6 mph12.2 kmh 29.68 in1005.1 mb 0.00 in0.0 mm 0.00 in0.0 mm 0.08 in2.0 mm
10:05 PM 57.7°F14.3°C 56.9°F13.8°C 97% 1.8 mph N2.9 kmh N 7.6 mph12.2 kmh 29.67 in1004.7 mb 0.00 in0.0 mm 0.00 in0.0 mm 0.08 in2.0 mm
10:10 PM 57.7°F14.3°C 56.9°F13.8°C 97% 2.1 mph N3.4 kmh N 6.9 mph11.1 kmh 29.67 in1004.7 mb 0.00 in0.0 mm 0.00 in0.0 mm 0.08 in2.0 mm
10:13 PM 57.6°F14.2°C 56.7°F13.7°C 97% 2.2 mph S3.5 kmh S 5.4 mph8.7 kmh 29.67 in1004.7 mb 0.00 in0.0 mm 0.00 in0.0 mm 0.08 in2.0 mm
10:15 PM 57.6°F14.2°C 56.7°F13.7°C 97% 2.2 mph NW3.5 kmh NW 6.9 mph11.1 kmh 29.67 in1004.7 mb 0.00 in0.0 mm 0.00 in0.0 mm 0.08 in2.0 mm
10:20 PM 57.6°F14.2°C 56.7°F13.7°C 97% 1.8 mph WNW2.9 kmh WNW 6.0 mph9.7 kmh 29.68 in1005.1 mb 0.00 in0.0 mm 0.00 in0.0 mm 0.08 in2.0 mm
10:25 PM 57.4°F14.1°C 56.5°F13.6°C 97% 1.7 mph WSW2.7 kmh WSW 5.4 mph8.7 kmh 29.67 in1004.7 mb 0.00 in0.0 mm 0.00 in0.0 mm 0.08 in2.0 mm
10:30 PM 57.2°F14.0°C 56.4°F13.6°C 97% 1.8 mph W2.9 kmh W 5.4 mph8.7 kmh 29.67 in1004.7 mb 0.00 in0.0 mm 0.00 in0.0 mm 0.08 in2.0 mm
10:35 PM 57.0°F13.9°C 56.5°F13.6°C 98% 1.7 mph NW2.7 kmh NW 4.5 mph7.2 kmh 29.67 in1004.7 mb 0.00 in0.0 mm 0.00 in0.0 mm 0.08 in2.0 mm
10:40 PM 56.8°F13.8°C 56.3°F13.5°C 98% 1.8 mph NW2.9 kmh NW 5.4 mph8.7 kmh 29.68 in1005.1 mb 0.00 in0.0 mm 0.00 in0.0 mm 0.08 in2.0 mm
10:43 PM 56.8°F13.8°C 56.3°F13.5°C 98% 1.6 mph NE2.6 kmh NE 3.1 mph5.0 kmh 29.68 in1005.1 mb 0.00 in0.0 mm 0.00 in0.0 mm 0.08 in2.0 mm
10:45 PM 56.8°F13.8°C 56.3°F13.5°C 98% 1.9 mph NW3.1 kmh NW 5.4 mph8.7 kmh 29.68 in1005.1 mb 0.00 in0.0 mm 0.00 in0.0 mm 0.08 in2.0 mm
10:50 PM 56.8°F13.8°C 56.3°F13.5°C 98% 2.0 mph WSW3.2 kmh WSW 4.5 mph7.2 kmh 29.68 in1005.1 mb 0.00 in0.0 mm 0.00 in0.0 mm 0.08 in2.0 mm
10:55 PM 56.7°F13.7°C 56.1°F13.4°C 98% 2.1 mph SSW3.4 kmh SSW 4.5 mph7.2 kmh 29.69 in1005.4 mb 0.00 in0.0 mm 0.00 in0.0 mm 0.08 in2.0 mm
11:00 PM 56.5°F13.6°C 55.9°F13.3°C 98% 2.1 mph SW3.4 kmh SW 4.5 mph7.2 kmh 29.68 in1005.1 mb 0.00 in0.0 mm 0.00 in0.0 mm 0.08 in2.0 mm
11:05 PM 56.7°F13.7°C 56.1°F13.4°C 98% 2.2 mph W3.5 kmh W 5.4 mph8.7 kmh 29.69 in1005.4 mb 0.00 in0.0 mm 0.00 in0.0 mm 0.08 in2.0 mm
11:10 PM 56.5°F13.6°C 55.9°F13.3°C 98% 2.3 mph W3.7 kmh W 5.4 mph8.7 kmh 29.69 in1005.4 mb 0.00 in0.0 mm 0.00 in0.0 mm 0.08 in2.0 mm
11:13 PM 56.5°F13.6°C 55.9°F13.3°C 98% 1.6 mph NW2.6 kmh NW 3.8 mph6.1 kmh 29.69 in1005.4 mb 0.00 in0.0 mm 0.00 in0.0 mm 0.08 in2.0 mm
11:15 PM 56.5°F13.6°C 55.9°F13.3°C 98% 2.0 mph SW3.2 kmh SW 5.4 mph8.7 kmh 29.69 in1005.4 mb 0.00 in0.0 mm 0.00 in0.0 mm 0.08 in2.0 mm
11:20 PM 56.5°F13.6°C 55.6°F13.1°C 97% 1.5 mph WSW2.4 kmh WSW 5.4 mph8.7 kmh 29.69 in1005.4 mb 0.00 in0.0 mm 0.00 in0.0 mm 0.08 in2.0 mm
11:25 PM 56.3°F13.5°C 55.5°F13.1°C 97% 1.4 mph W2.3 kmh W 3.8 mph6.1 kmh 29.69 in1005.4 mb 0.00 in0.0 mm 0.00 in0.0 mm 0.08 in2.0 mm
11:30 PM 56.1°F13.4°C 55.3°F12.9°C 97% 1.5 mph WNW2.4 kmh WNW 3.8 mph6.1 kmh 29.70 in1005.8 mb 0.00 in0.0 mm 0.00 in0.0 mm 0.08 in2.0 mm
11:35 PM 55.9°F13.3°C 55.1°F12.8°C 97% 1.4 mph NW2.3 kmh NW 4.5 mph7.2 kmh 29.69 in1005.4 mb 0.00 in0.0 mm 0.00 in0.0 mm 0.08 in2.0 mm
11:40 PM 55.9°F13.3°C 55.1°F12.8°C 97% 1.4 mph NW2.3 kmh NW 4.5 mph7.2 kmh 29.70 in1005.8 mb 0.00 in0.0 mm 0.00 in0.0 mm 0.08 in2.0 mm
11:43 PM 55.9°F13.3°C 55.1°F12.8°C 97% 0.7 mph NW1.1 kmh NW 2.2 mph3.5 kmh 29.70 in1005.8 mb 0.00 in0.0 mm 0.00 in0.0 mm 0.08 in2.0 mm
11:45 PM 55.9°F13.3°C 55.1°F12.8°C 97% 1.3 mph WNW2.1 kmh WNW 3.1 mph5.0 kmh 29.70 in1005.8 mb 0.00 in0.0 mm 0.00 in0.0 mm 0.08 in2.0 mm
11:50 PM 55.8°F13.2°C 54.9°F12.7°C 97% 1.4 mph W2.3 kmh W 5.4 mph8.7 kmh 29.70 in1005.8 mb 0.00 in0.0 mm 0.00 in0.0 mm 0.08 in2.0 mm
11:55 PM 55.8°F13.2°C 54.9°F12.7°C 97% 1.5 mph W2.4 kmh W 5.4 mph8.7 kmh 29.70 in1005.8 mb 0.00 in0.0 mm 0.00 in0.0 mm 0.08 in2.0 mm